sensor_id;sensor_type;location;lat;lon;timestamp;P1;durP1;ratioP1;P2;durP2;ratioP2
35847;SDS011;22332;51.954;20.118;2023-11-19T00:01:32;50.20;;;25.90;;
35847;SDS011;22332;51.954;20.118;2023-11-19T00:04:38;49.90;;;25.90;;
35847;SDS011;22332;51.954;20.118;2023-11-19T00:07:43;48.20;;;25.50;;
35847;SDS011;22332;51.954;20.118;2023-11-19T00:10:49;49.20;;;24.80;;
35847;SDS011;22332;51.954;20.118;2023-11-19T00:13:54;45.20;;;24.50;;
35847;SDS011;22332;51.954;20.118;2023-11-19T00:17:00;47.20;;;24.60;;
35847;SDS011;22332;51.954;20.118;2023-11-19T00:20:07;46.30;;;22.30;;
35847;SDS011;22332;51.954;20.118;2023-11-19T00:23:14;45.60;;;23.10;;
35847;SDS011;22332;51.954;20.118;2023-11-19T00:26:20;36.60;;;19.40;;
35847;SDS011;22332;51.954;20.118;2023-11-19T00:29:26;43.30;;;23.00;;
35847;SDS011;22332;51.954;20.118;2023-11-19T00:32:32;51.40;;;25.70;;
35847;SDS011;22332;51.954;20.118;2023-11-19T00:35:39;49.10;;;25.30;;
35847;SDS011;22332;51.954;20.118;2023-11-19T00:38:44;44.70;;;24.30;;
35847;SDS011;22332;51.954;20.118;2023-11-19T00:41:50;50.30;;;27.30;;
35847;SDS011;22332;51.954;20.118;2023-11-19T00:44:55;44.40;;;24.90;;
35847;SDS011;22332;51.954;20.118;2023-11-19T00:48:01;44.30;;;23.10;;
35847;SDS011;22332;51.954;20.118;2023-11-19T00:51:07;57.10;;;31.40;;
35847;SDS011;22332;51.954;20.118;2023-11-19T00:54:13;48.40;;;23.00;;
35847;SDS011;22332;51.954;20.118;2023-11-19T00:57:19;43.90;;;22.40;;
35847;SDS011;22332;51.954;20.118;2023-11-19T01:00:24;41.30;;;20.70;;
35847;SDS011;22332;51.954;20.118;2023-11-19T01:03:30;45.40;;;23.10;;
35847;SDS011;22332;51.954;20.118;2023-11-19T01:06:35;59.00;;;31.10;;
35847;SDS011;22332;51.954;20.118;2023-11-19T01:09:42;49.40;;;25.40;;
35847;SDS011;22332;51.954;20.118;2023-11-19T01:12:48;50.70;;;26.70;;
35847;SDS011;22332;51.954;20.118;2023-11-19T01:15:54;51.40;;;27.00;;
35847;SDS011;22332;51.954;20.118;2023-11-19T01:19:00;49.60;;;26.20;;
35847;SDS011;22332;51.954;20.118;2023-11-19T01:22:10;48.80;;;25.00;;
35847;SDS011;22332;51.954;20.118;2023-11-19T01:25:15;48.20;;;25.00;;
35847;SDS011;22332;51.954;20.118;2023-11-19T01:28:21;51.80;;;25.60;;
35847;SDS011;22332;51.954;20.118;2023-11-19T01:31:27;52.00;;;25.00;;
35847;SDS011;22332;51.954;20.118;2023-11-19T01:34:32;53.10;;;24.90;;
35847;SDS011;22332;51.954;20.118;2023-11-19T01:37:38;49.30;;;24.20;;
35847;SDS011;22332;51.954;20.118;2023-11-19T01:40:44;40.90;;;21.50;;
35847;SDS011;22332;51.954;20.118;2023-11-19T01:43:49;45.30;;;23.90;;
35847;SDS011;22332;51.954;20.118;2023-11-19T01:46:55;47.30;;;24.00;;
35847;SDS011;22332;51.954;20.118;2023-11-19T01:50:01;45.90;;;23.50;;
35847;SDS011;22332;51.954;20.118;2023-11-19T01:53:09;41.30;;;23.20;;
35847;SDS011;22332;51.954;20.118;2023-11-19T01:56:15;39.70;;;22.40;;
35847;SDS011;22332;51.954;20.118;2023-11-19T01:59:21;46.00;;;23.10;;
35847;SDS011;22332;51.954;20.118;2023-11-19T02:02:29;41.60;;;21.00;;
35847;SDS011;22332;51.954;20.118;2023-11-19T02:05:35;40.60;;;21.90;;
35847;SDS011;22332;51.954;20.118;2023-11-19T02:08:41;38.30;;;21.40;;
35847;SDS011;22332;51.954;20.118;2023-11-19T02:11:46;41.70;;;22.00;;
35847;SDS011;22332;51.954;20.118;2023-11-19T02:14:54;38.30;;;21.20;;
35847;SDS011;22332;51.954;20.118;2023-11-19T02:18:21;38.70;;;19.50;;
35847;SDS011;22332;51.954;20.118;2023-11-19T02:21:30;34.80;;;18.70;;
35847;SDS011;22332;51.954;20.118;2023-11-19T02:24:36;36.60;;;19.20;;
35847;SDS011;22332;51.954;20.118;2023-11-19T02:27:45;37.40;;;20.10;;
35847;SDS011;22332;51.954;20.118;2023-11-19T02:30:58;37.50;;;20.50;;
35847;SDS011;22332;51.954;20.118;2023-11-19T02:34:04;37.30;;;20.30;;
35847;SDS011;22332;51.954;20.118;2023-11-19T02:37:09;36.40;;;20.10;;
35847;SDS011;22332;51.954;20.118;2023-11-19T02:40:15;35.00;;;20.10;;
35847;SDS011;22332;51.954;20.118;2023-11-19T02:43:21;61.90;;;30.20;;
35847;SDS011;22332;51.954;20.118;2023-11-19T02:46:26;39.10;;;21.40;;
35847;SDS011;22332;51.954;20.118;2023-11-19T02:49:32;34.90;;;18.60;;
35847;SDS011;22332;51.954;20.118;2023-11-19T02:52:40;34.80;;;17.80;;
35847;SDS011;22332;51.954;20.118;2023-11-19T02:55:46;29.10;;;16.20;;
35847;SDS011;22332;51.954;20.118;2023-11-19T02:58:52;29.30;;;17.10;;
35847;SDS011;22332;51.954;20.118;2023-11-19T03:01:58;35.40;;;18.90;;
35847;SDS011;22332;51.954;20.118;2023-11-19T03:05:04;31.40;;;17.30;;
35847;SDS011;22332;51.954;20.118;2023-11-19T03:08:11;32.00;;;17.40;;
35847;SDS011;22332;51.954;20.118;2023-11-19T03:11:16;35.70;;;18.30;;
35847;SDS011;22332;51.954;20.118;2023-11-19T03:14:22;30.40;;;17.00;;
35847;SDS011;22332;51.954;20.118;2023-11-19T03:17:27;27.40;;;16.30;;
35847;SDS011;22332;51.954;20.118;2023-11-19T03:20:33;29.50;;;16.90;;
35847;SDS011;22332;51.954;20.118;2023-11-19T03:23:39;32.40;;;17.90;;
35847;SDS011;22332;51.954;20.118;2023-11-19T03:26:48;37.90;;;20.00;;
35847;SDS011;22332;51.954;20.118;2023-11-19T03:29:54;39.70;;;22.30;;
35847;SDS011;22332;51.954;20.118;2023-11-19T03:33:00;33.40;;;18.00;;
35847;SDS011;22332;51.954;20.118;2023-11-19T03:36:06;42.30;;;21.80;;
35847;SDS011;22332;51.954;20.118;2023-11-19T03:39:12;38.80;;;19.60;;
35847;SDS011;22332;51.954;20.118;2023-11-19T03:42:18;37.80;;;20.40;;
35847;SDS011;22332;51.954;20.118;2023-11-19T03:45:24;32.80;;;19.60;;
35847;SDS011;22332;51.954;20.118;2023-11-19T03:48:30;32.60;;;17.80;;
35847;SDS011;22332;51.954;20.118;2023-11-19T03:51:35;35.90;;;20.80;;
35847;SDS011;22332;51.954;20.118;2023-11-19T03:54:41;35.80;;;20.40;;
35847;SDS011;22332;51.954;20.118;2023-11-19T03:57:46;34.30;;;18.60;;
35847;SDS011;22332;51.954;20.118;2023-11-19T04:00:52;35.20;;;20.40;;
35847;SDS011;22332;51.954;20.118;2023-11-19T04:03:57;34.90;;;20.10;;
35847;SDS011;22332;51.954;20.118;2023-11-19T04:07:03;35.80;;;21.00;;
35847;SDS011;22332;51.954;20.118;2023-11-19T04:10:09;36.50;;;18.90;;
35847;SDS011;22332;51.954;20.118;2023-11-19T04:13:15;32.90;;;18.90;;
35847;SDS011;22332;51.954;20.118;2023-11-19T04:16:25;41.00;;;22.70;;
35847;SDS011;22332;51.954;20.118;2023-11-19T04:19:32;27.60;;;15.40;;
35847;SDS011;22332;51.954;20.118;2023-11-19T04:22:37;32.20;;;18.00;;
35847;SDS011;22332;51.954;20.118;2023-11-19T04:25:43;32.10;;;18.80;;
35847;SDS011;22332;51.954;20.118;2023-11-19T04:28:49;31.00;;;17.60;;
35847;SDS011;22332;51.954;20.118;2023-11-19T04:31:55;33.10;;;18.30;;
35847;SDS011;22332;51.954;20.118;2023-11-19T04:35:00;32.50;;;17.70;;
35847;SDS011;22332;51.954;20.118;2023-11-19T04:38:06;34.80;;;22.10;;
35847;SDS011;22332;51.954;20.118;2023-11-19T04:41:12;33.60;;;19.30;;
35847;SDS011;22332;51.954;20.118;2023-11-19T04:44:17;33.50;;;18.80;;
35847;SDS011;22332;51.954;20.118;2023-11-19T04:47:23;34.60;;;19.10;;
35847;SDS011;22332;51.954;20.118;2023-11-19T04:50:28;32.30;;;18.70;;
35847;SDS011;22332;51.954;20.118;2023-11-19T04:53:34;35.60;;;18.10;;
35847;SDS011;22332;51.954;20.118;2023-11-19T04:56:39;34.70;;;18.30;;
35847;SDS011;22332;51.954;20.118;2023-11-19T04:59:48;35.50;;;18.10;;
35847;SDS011;22332;51.954;20.118;2023-11-19T05:02:54;32.80;;;16.70;;
35847;SDS011;22332;51.954;20.118;2023-11-19T05:06:00;32.70;;;18.70;;
35847;SDS011;22332;51.954;20.118;2023-11-19T05:09:06;31.30;;;18.00;;
35847;SDS011;22332;51.954;20.118;2023-11-19T05:12:11;32.60;;;18.20;;
35847;SDS011;22332;51.954;20.118;2023-11-19T05:15:17;31.30;;;18.30;;
35847;SDS011;22332;51.954;20.118;2023-11-19T05:18:23;32.50;;;18.20;;
35847;SDS011;22332;51.954;20.118;2023-11-19T05:21:29;30.80;;;17.50;;
35847;SDS011;22332;51.954;20.118;2023-11-19T05:24:34;34.60;;;18.70;;
35847;SDS011;22332;51.954;20.118;2023-11-19T05:27:40;34.20;;;19.00;;
35847;SDS011;22332;51.954;20.118;2023-11-19T05:30:47;34.00;;;18.10;;
35847;SDS011;22332;51.954;20.118;2023-11-19T05:33:53;33.50;;;19.30;;
35847;SDS011;22332;51.954;20.118;2023-11-19T05:36:58;31.30;;;16.50;;
35847;SDS011;22332;51.954;20.118;2023-11-19T05:40:05;35.20;;;17.50;;
35847;SDS011;22332;51.954;20.118;2023-11-19T05:43:17;31.10;;;16.20;;
35847;SDS011;22332;51.954;20.118;2023-11-19T05:46:22;39.40;;;19.20;;
35847;SDS011;22332;51.954;20.118;2023-11-19T05:49:29;38.40;;;19.00;;
35847;SDS011;22332;51.954;20.118;2023-11-19T05:52:35;41.10;;;21.50;;
35847;SDS011;22332;51.954;20.118;2023-11-19T05:55:41;34.00;;;18.90;;
35847;SDS011;22332;51.954;20.118;2023-11-19T05:58:51;35.50;;;19.30;;
35847;SDS011;22332;51.954;20.118;2023-11-19T06:01:58;31.50;;;17.60;;
35847;SDS011;22332;51.954;20.118;2023-11-19T06:05:05;36.60;;;18.60;;
35847;SDS011;22332;51.954;20.118;2023-11-19T06:08:12;33.40;;;18.00;;
35847;SDS011;22332;51.954;20.118;2023-11-19T06:11:18;32.00;;;18.00;;
35847;SDS011;22332;51.954;20.118;2023-11-19T06:14:23;33.30;;;16.50;;
35847;SDS011;22332;51.954;20.118;2023-11-19T06:17:29;31.10;;;16.10;;
35847;SDS011;22332;51.954;20.118;2023-11-19T06:20:34;27.80;;;15.30;;
35847;SDS011;22332;51.954;20.118;2023-11-19T06:23:40;29.30;;;16.20;;
35847;SDS011;22332;51.954;20.118;2023-11-19T06:26:47;31.60;;;17.10;;
35847;SDS011;22332;51.954;20.118;2023-11-19T06:29:52;30.50;;;16.70;;
35847;SDS011;22332;51.954;20.118;2023-11-19T06:32:58;31.10;;;17.00;;
35847;SDS011;22332;51.954;20.118;2023-11-19T06:36:05;30.00;;;16.90;;
35847;SDS011;22332;51.954;20.118;2023-11-19T06:39:12;30.00;;;16.30;;
35847;SDS011;22332;51.954;20.118;2023-11-19T06:42:18;27.30;;;16.10;;
35847;SDS011;22332;51.954;20.118;2023-11-19T06:45:27;31.80;;;19.20;;
35847;SDS011;22332;51.954;20.118;2023-11-19T06:48:33;31.20;;;17.60;;
35847;SDS011;22332;51.954;20.118;2023-11-19T06:51:41;30.20;;;18.00;;
35847;SDS011;22332;51.954;20.118;2023-11-19T06:54:49;33.40;;;17.70;;
35847;SDS011;22332;51.954;20.118;2023-11-19T06:57:55;31.40;;;17.70;;
35847;SDS011;22332;51.954;20.118;2023-11-19T07:01:03;32.90;;;17.30;;
35847;SDS011;22332;51.954;20.118;2023-11-19T07:04:11;31.60;;;17.80;;
35847;SDS011;22332;51.954;20.118;2023-11-19T07:07:17;33.20;;;20.00;;
35847;SDS011;22332;51.954;20.118;2023-11-19T07:10:22;30.30;;;17.60;;
35847;SDS011;22332;51.954;20.118;2023-11-19T07:13:28;31.00;;;17.40;;
35847;SDS011;22332;51.954;20.118;2023-11-19T07:16:34;30.60;;;17.90;;
35847;SDS011;22332;51.954;20.118;2023-11-19T07:19:40;36.50;;;19.10;;
35847;SDS011;22332;51.954;20.118;2023-11-19T07:22:46;41.00;;;21.70;;
35847;SDS011;22332;51.954;20.118;2023-11-19T07:25:52;37.30;;;20.00;;
35847;SDS011;22332;51.954;20.118;2023-11-19T07:28:57;32.60;;;18.10;;
35847;SDS011;22332;51.954;20.118;2023-11-19T07:32:05;32.50;;;18.80;;
35847;SDS011;22332;51.954;20.118;2023-11-19T07:35:11;44.90;;;22.60;;
35847;SDS011;22332;51.954;20.118;2023-11-19T07:38:16;29.30;;;16.60;;
35847;SDS011;22332;51.954;20.118;2023-11-19T07:41:22;29.70;;;15.90;;
35847;SDS011;22332;51.954;20.118;2023-11-19T07:44:28;35.70;;;23.80;;
35847;SDS011;22332;51.954;20.118;2023-11-19T07:47:33;33.00;;;21.30;;
35847;SDS011;22332;51.954;20.118;2023-11-19T07:50:39;38.60;;;20.90;;
35847;SDS011;22332;51.954;20.118;2023-11-19T07:53:45;30.90;;;17.50;;
35847;SDS011;22332;51.954;20.118;2023-11-19T07:56:51;29.30;;;17.10;;
35847;SDS011;22332;51.954;20.118;2023-11-19T07:59:56;27.30;;;16.80;;
35847;SDS011;22332;51.954;20.118;2023-11-19T08:03:03;25.40;;;15.50;;
35847;SDS011;22332;51.954;20.118;2023-11-19T08:06:09;27.10;;;16.40;;
35847;SDS011;22332;51.954;20.118;2023-11-19T08:09:15;27.20;;;15.80;;
35847;SDS011;22332;51.954;20.118;2023-11-19T08:12:21;28.60;;;15.70;;
35847;SDS011;22332;51.954;20.118;2023-11-19T08:15:26;23.40;;;13.90;;
35847;SDS011;22332;51.954;20.118;2023-11-19T08:18:32;25.50;;;14.90;;
35847;SDS011;22332;51.954;20.118;2023-11-19T08:21:37;27.00;;;15.20;;
35847;SDS011;22332;51.954;20.118;2023-11-19T08:24:43;26.20;;;16.20;;
35847;SDS011;22332;51.954;20.118;2023-11-19T08:27:48;24.20;;;15.20;;
35847;SDS011;22332;51.954;20.118;2023-11-19T08:30:54;25.00;;;15.10;;
35847;SDS011;22332;51.954;20.118;2023-11-19T08:33:59;25.70;;;16.30;;
35847;SDS011;22332;51.954;20.118;2023-11-19T08:37:05;26.70;;;15.70;;
35847;SDS011;22332;51.954;20.118;2023-11-19T08:40:11;25.50;;;15.70;;
35847;SDS011;22332;51.954;20.118;2023-11-19T08:43:17;22.60;;;14.20;;
35847;SDS011;22332;51.954;20.118;2023-11-19T08:46:23;21.80;;;12.90;;
35847;SDS011;22332;51.954;20.118;2023-11-19T08:49:29;26.20;;;13.90;;
35847;SDS011;22332;51.954;20.118;2023-11-19T08:52:34;22.00;;;12.10;;
35847;SDS011;22332;51.954;20.118;2023-11-19T08:55:40;21.30;;;12.70;;
35847;SDS011;22332;51.954;20.118;2023-11-19T08:58:45;23.10;;;12.80;;
35847;SDS011;22332;51.954;20.118;2023-11-19T09:01:51;20.30;;;12.40;;
35847;SDS011;22332;51.954;20.118;2023-11-19T09:04:56;19.40;;;12.10;;
35847;SDS011;22332;51.954;20.118;2023-11-19T09:08:02;20.20;;;12.20;;
35847;SDS011;22332;51.954;20.118;2023-11-19T09:11:11;20.70;;;12.70;;
35847;SDS011;22332;51.954;20.118;2023-11-19T09:14:16;21.20;;;13.50;;
35847;SDS011;22332;51.954;20.118;2023-11-19T09:17:27;22.20;;;14.30;;
35847;SDS011;22332;51.954;20.118;2023-11-19T09:20:32;21.10;;;13.50;;
35847;SDS011;22332;51.954;20.118;2023-11-19T09:23:41;24.80;;;15.00;;
35847;SDS011;22332;51.954;20.118;2023-11-19T09:26:47;29.20;;;17.20;;
35847;SDS011;22332;51.954;20.118;2023-11-19T09:29:53;42.80;;;21.20;;
35847;SDS011;22332;51.954;20.118;2023-11-19T09:33:00;39.60;;;18.80;;
35847;SDS011;22332;51.954;20.118;2023-11-19T09:36:06;29.70;;;17.00;;
35847;SDS011;22332;51.954;20.118;2023-11-19T09:39:13;26.30;;;15.60;;
35847;SDS011;22332;51.954;20.118;2023-11-19T09:42:20;34.80;;;18.30;;
35847;SDS011;22332;51.954;20.118;2023-11-19T09:45:28;22.60;;;13.50;;
35847;SDS011;22332;51.954;20.118;2023-11-19T09:48:36;24.20;;;14.20;;
35847;SDS011;22332;51.954;20.118;2023-11-19T09:51:43;28.70;;;16.80;;
35847;SDS011;22332;51.954;20.118;2023-11-19T09:54:48;25.30;;;15.40;;
35847;SDS011;22332;51.954;20.118;2023-11-19T09:57:54;24.40;;;14.60;;
35847;SDS011;22332;51.954;20.118;2023-11-19T10:01:03;23.00;;;12.70;;
35847;SDS011;22332;51.954;20.118;2023-11-19T10:04:10;26.10;;;15.10;;
35847;SDS011;22332;51.954;20.118;2023-11-19T10:07:19;39.30;;;20.30;;
35847;SDS011;22332;51.954;20.118;2023-11-19T10:10:24;34.60;;;18.00;;
35847;SDS011;22332;51.954;20.118;2023-11-19T10:13:30;27.30;;;16.30;;
35847;SDS011;22332;51.954;20.118;2023-11-19T10:16:40;24.10;;;14.60;;
35847;SDS011;22332;51.954;20.118;2023-11-19T10:19:49;27.10;;;16.70;;
35847;SDS011;22332;51.954;20.118;2023-11-19T10:22:55;26.80;;;16.20;;
35847;SDS011;22332;51.954;20.118;2023-11-19T10:26:04;28.80;;;17.90;;
35847;SDS011;22332;51.954;20.118;2023-11-19T10:29:10;35.30;;;19.20;;
35847;SDS011;22332;51.954;20.118;2023-11-19T10:32:18;49.60;;;24.20;;
35847;SDS011;22332;51.954;20.118;2023-11-19T10:35:24;52.90;;;28.00;;
35847;SDS011;22332;51.954;20.118;2023-11-19T10:38:29;33.20;;;18.40;;
35847;SDS011;22332;51.954;20.118;2023-11-19T10:41:35;24.00;;;14.00;;
35847;SDS011;22332;51.954;20.118;2023-11-19T10:44:41;31.00;;;17.80;;
35847;SDS011;22332;51.954;20.118;2023-11-19T10:47:46;26.00;;;14.80;;
35847;SDS011;22332;51.954;20.118;2023-11-19T10:50:54;39.00;;;19.10;;
35847;SDS011;22332;51.954;20.118;2023-11-19T10:54:01;53.10;;;22.70;;
35847;SDS011;22332;51.954;20.118;2023-11-19T10:57:09;36.20;;;21.40;;
35847;SDS011;22332;51.954;20.118;2023-11-19T11:00:18;32.00;;;19.20;;
35847;SDS011;22332;51.954;20.118;2023-11-19T11:03:26;29.60;;;16.20;;
35847;SDS011;22332;51.954;20.118;2023-11-19T11:06:38;29.40;;;16.60;;
35847;SDS011;22332;51.954;20.118;2023-11-19T11:09:44;25.60;;;15.60;;
35847;SDS011;22332;51.954;20.118;2023-11-19T11:12:51;32.20;;;17.40;;
35847;SDS011;22332;51.954;20.118;2023-11-19T11:16:01;28.40;;;16.50;;
35847;SDS011;22332;51.954;20.118;2023-11-19T11:19:10;31.10;;;19.10;;
35847;SDS011;22332;51.954;20.118;2023-11-19T11:22:16;24.30;;;14.70;;
35847;SDS011;22332;51.954;20.118;2023-11-19T11:25:27;25.40;;;15.20;;
35847;SDS011;22332;51.954;20.118;2023-11-19T11:28:43;24.00;;;13.90;;
35847;SDS011;22332;51.954;20.118;2023-11-19T11:31:55;23.20;;;14.50;;
35847;SDS011;22332;51.954;20.118;2023-11-19T11:35:22;27.80;;;16.10;;
35847;SDS011;22332;51.954;20.118;2023-11-19T11:38:36;27.70;;;15.90;;
35847;SDS011;22332;51.954;20.118;2023-11-19T11:41:44;25.90;;;15.30;;
35847;SDS011;22332;51.954;20.118;2023-11-19T11:44:59;22.90;;;13.40;;
35847;SDS011;22332;51.954;20.118;2023-11-19T11:48:11;26.40;;;15.10;;
35847;SDS011;22332;51.954;20.118;2023-11-19T11:51:18;20.70;;;12.90;;
35847;SDS011;22332;51.954;20.118;2023-11-19T11:55:05;22.70;;;13.70;;
35847;SDS011;22332;51.954;20.118;2023-11-19T11:58:13;22.10;;;12.30;;
35847;SDS011;22332;51.954;20.118;2023-11-19T12:01:21;22.90;;;12.00;;
35847;SDS011;22332;51.954;20.118;2023-11-19T12:04:31;21.00;;;12.50;;
35847;SDS011;22332;51.954;20.118;2023-11-19T12:07:38;20.20;;;12.30;;
35847;SDS011;22332;51.954;20.118;2023-11-19T12:10:44;18.20;;;11.50;;
35847;SDS011;22332;51.954;20.118;2023-11-19T12:13:54;21.50;;;12.80;;
35847;SDS011;22332;51.954;20.118;2023-11-19T12:17:04;20.60;;;12.30;;
35847;SDS011;22332;51.954;20.118;2023-11-19T12:20:43;20.60;;;12.70;;
35847;SDS011;22332;51.954;20.118;2023-11-19T12:23:49;24.60;;;14.40;;
35847;SDS011;22332;51.954;20.118;2023-11-19T12:26:55;22.20;;;12.70;;
35847;SDS011;22332;51.954;20.118;2023-11-19T12:30:01;21.00;;;13.20;;
35847;SDS011;22332;51.954;20.118;2023-11-19T12:33:09;21.10;;;12.00;;
35847;SDS011;22332;51.954;20.118;2023-11-19T12:36:15;23.00;;;12.90;;
35847;SDS011;22332;51.954;20.118;2023-11-19T12:39:20;20.10;;;11.50;;
35847;SDS011;22332;51.954;20.118;2023-11-19T12:42:36;22.90;;;12.50;;
35847;SDS011;22332;51.954;20.118;2023-11-19T12:45:42;22.60;;;13.70;;
35847;SDS011;22332;51.954;20.118;2023-11-19T12:48:47;28.50;;;15.80;;
35847;SDS011;22332;51.954;20.118;2023-11-19T12:51:53;29.40;;;15.60;;
35847;SDS011;22332;51.954;20.118;2023-11-19T12:54:59;24.60;;;13.90;;
35847;SDS011;22332;51.954;20.118;2023-11-19T12:58:04;25.30;;;14.40;;
35847;SDS011;22332;51.954;20.118;2023-11-19T13:01:10;27.60;;;15.90;;
35847;SDS011;22332;51.954;20.118;2023-11-19T13:04:21;26.60;;;13.90;;
35847;SDS011;22332;51.954;20.118;2023-11-19T13:07:31;29.10;;;16.40;;
35847;SDS011;22332;51.954;20.118;2023-11-19T13:10:50;27.90;;;13.80;;
35847;SDS011;22332;51.954;20.118;2023-11-19T13:13:57;27.00;;;14.70;;
35847;SDS011;22332;51.954;20.118;2023-11-19T13:17:03;24.20;;;13.10;;
35847;SDS011;22332;51.954;20.118;2023-11-19T13:20:10;27.70;;;15.60;;
35847;SDS011;22332;51.954;20.118;2023-11-19T13:23:17;24.20;;;14.10;;
35847;SDS011;22332;51.954;20.118;2023-11-19T13:26:23;29.20;;;16.20;;
35847;SDS011;22332;51.954;20.118;2023-11-19T13:29:28;26.80;;;15.10;;
35847;SDS011;22332;51.954;20.118;2023-11-19T13:32:34;25.70;;;15.00;;
35847;SDS011;22332;51.954;20.118;2023-11-19T13:35:40;27.30;;;15.00;;
35847;SDS011;22332;51.954;20.118;2023-11-19T13:38:46;28.30;;;14.80;;
35847;SDS011;22332;51.954;20.118;2023-11-19T13:41:51;30.40;;;15.80;;
35847;SDS011;22332;51.954;20.118;2023-11-19T13:44:57;27.00;;;14.40;;
35847;SDS011;22332;51.954;20.118;2023-11-19T13:48:02;29.90;;;17.10;;
35847;SDS011;22332;51.954;20.118;2023-11-19T13:51:08;28.50;;;16.00;;
35847;SDS011;22332;51.954;20.118;2023-11-19T13:54:13;27.10;;;16.30;;
35847;SDS011;22332;51.954;20.118;2023-11-19T13:57:19;27.70;;;16.20;;
35847;SDS011;22332;51.954;20.118;2023-11-19T14:00:24;25.30;;;14.70;;
35847;SDS011;22332;51.954;20.118;2023-11-19T14:03:30;23.50;;;14.90;;
35847;SDS011;22332;51.954;20.118;2023-11-19T14:06:36;24.30;;;13.70;;
35847;SDS011;22332;51.954;20.118;2023-11-19T14:09:42;25.10;;;14.60;;
35847;SDS011;22332;51.954;20.118;2023-11-19T14:12:49;24.10;;;13.60;;
35847;SDS011;22332;51.954;20.118;2023-11-19T14:15:54;25.10;;;13.40;;
35847;SDS011;22332;51.954;20.118;2023-11-19T14:19:00;23.00;;;13.50;;
35847;SDS011;22332;51.954;20.118;2023-11-19T14:22:05;23.00;;;13.00;;
35847;SDS011;22332;51.954;20.118;2023-11-19T14:25:11;28.50;;;14.60;;
35847;SDS011;22332;51.954;20.118;2023-11-19T14:28:17;23.70;;;14.90;;
35847;SDS011;22332;51.954;20.118;2023-11-19T14:31:23;26.50;;;15.20;;
35847;SDS011;22332;51.954;20.118;2023-11-19T14:34:31;26.80;;;15.60;;
35847;SDS011;22332;51.954;20.118;2023-11-19T14:37:37;35.50;;;21.70;;
35847;SDS011;22332;51.954;20.118;2023-11-19T14:40:42;30.60;;;19.80;;
35847;SDS011;22332;51.954;20.118;2023-11-19T14:43:48;30.80;;;17.70;;
35847;SDS011;22332;51.954;20.118;2023-11-19T14:46:53;28.00;;;17.10;;
35847;SDS011;22332;51.954;20.118;2023-11-19T14:49:59;77.10;;;37.30;;
35847;SDS011;22332;51.954;20.118;2023-11-19T14:53:09;55.60;;;25.10;;
35847;SDS011;22332;51.954;20.118;2023-11-19T14:56:15;35.60;;;16.90;;
35847;SDS011;22332;51.954;20.118;2023-11-19T14:59:21;33.60;;;16.00;;
35847;SDS011;22332;51.954;20.118;2023-11-19T15:02:29;82.80;;;36.80;;
35847;SDS011;22332;51.954;20.118;2023-11-19T15:05:34;52.10;;;29.60;;
35847;SDS011;22332;51.954;20.118;2023-11-19T15:08:40;36.60;;;18.20;;
35847;SDS011;22332;51.954;20.118;2023-11-19T15:11:47;49.60;;;21.10;;
35847;SDS011;22332;51.954;20.118;2023-11-19T15:14:52;31.50;;;17.10;;
35847;SDS011;22332;51.954;20.118;2023-11-19T15:17:58;33.50;;;17.90;;
35847;SDS011;22332;51.954;20.118;2023-11-19T15:21:05;29.10;;;16.30;;
35847;SDS011;22332;51.954;20.118;2023-11-19T15:24:11;28.40;;;17.10;;
35847;SDS011;22332;51.954;20.118;2023-11-19T15:27:16;36.90;;;20.80;;
35847;SDS011;22332;51.954;20.118;2023-11-19T15:30:22;26.90;;;15.30;;
35847;SDS011;22332;51.954;20.118;2023-11-19T15:33:29;24.90;;;13.70;;
35847;SDS011;22332;51.954;20.118;2023-11-19T15:36:34;22.60;;;13.70;;
35847;SDS011;22332;51.954;20.118;2023-11-19T15:39:40;22.50;;;13.50;;
35847;SDS011;22332;51.954;20.118;2023-11-19T15:42:46;32.20;;;17.40;;
35847;SDS011;22332;51.954;20.118;2023-11-19T15:45:51;29.00;;;16.70;;
35847;SDS011;22332;51.954;20.118;2023-11-19T15:48:57;26.40;;;15.10;;
35847;SDS011;22332;51.954;20.118;2023-11-19T15:52:03;22.60;;;14.60;;
35847;SDS011;22332;51.954;20.118;2023-11-19T15:55:09;23.00;;;12.80;;
35847;SDS011;22332;51.954;20.118;2023-11-19T15:58:15;23.20;;;12.90;;
35847;SDS011;22332;51.954;20.118;2023-11-19T16:01:21;21.90;;;12.80;;
35847;SDS011;22332;51.954;20.118;2023-11-19T16:04:26;25.60;;;14.60;;
35847;SDS011;22332;51.954;20.118;2023-11-19T16:07:32;29.00;;;17.60;;
35847;SDS011;22332;51.954;20.118;2023-11-19T16:10:38;32.80;;;19.30;;
35847;SDS011;22332;51.954;20.118;2023-11-19T16:13:45;30.20;;;17.50;;
35847;SDS011;22332;51.954;20.118;2023-11-19T16:16:51;28.50;;;17.60;;
35847;SDS011;22332;51.954;20.118;2023-11-19T16:19:56;34.90;;;18.50;;
35847;SDS011;22332;51.954;20.118;2023-11-19T16:23:02;35.70;;;19.10;;
35847;SDS011;22332;51.954;20.118;2023-11-19T16:26:08;58.20;;;24.90;;
35847;SDS011;22332;51.954;20.118;2023-11-19T16:29:14;42.20;;;19.70;;
35847;SDS011;22332;51.954;20.118;2023-11-19T16:32:20;29.10;;;16.90;;
35847;SDS011;22332;51.954;20.118;2023-11-19T16:35:26;36.00;;;18.50;;
35847;SDS011;22332;51.954;20.118;2023-11-19T16:38:31;34.00;;;17.40;;
35847;SDS011;22332;51.954;20.118;2023-11-19T16:41:37;38.40;;;22.50;;
35847;SDS011;22332;51.954;20.118;2023-11-19T16:44:43;35.70;;;19.60;;
35847;SDS011;22332;51.954;20.118;2023-11-19T16:47:49;32.30;;;18.40;;
35847;SDS011;22332;51.954;20.118;2023-11-19T16:50:55;28.00;;;15.40;;
35847;SDS011;22332;51.954;20.118;2023-11-19T16:54:02;27.90;;;17.50;;
35847;SDS011;22332;51.954;20.118;2023-11-19T16:57:13;26.90;;;16.60;;
35847;SDS011;22332;51.954;20.118;2023-11-19T17:00:21;26.80;;;14.80;;
35847;SDS011;22332;51.954;20.118;2023-11-19T17:03:28;24.20;;;13.90;;
35847;SDS011;22332;51.954;20.118;2023-11-19T17:06:33;24.20;;;13.80;;
35847;SDS011;22332;51.954;20.118;2023-11-19T17:09:42;30.00;;;17.90;;
35847;SDS011;22332;51.954;20.118;2023-11-19T17:12:51;29.00;;;15.80;;
35847;SDS011;22332;51.954;20.118;2023-11-19T17:15:56;24.90;;;14.80;;
35847;SDS011;22332;51.954;20.118;2023-11-19T17:19:02;24.50;;;15.40;;
35847;SDS011;22332;51.954;20.118;2023-11-19T17:22:08;25.70;;;14.90;;
35847;SDS011;22332;51.954;20.118;2023-11-19T17:25:13;23.20;;;14.50;;
35847;SDS011;22332;51.954;20.118;2023-11-19T17:28:19;24.60;;;14.90;;
35847;SDS011;22332;51.954;20.118;2023-11-19T17:31:25;28.50;;;16.20;;
35847;SDS011;22332;51.954;20.118;2023-11-19T17:34:35;26.90;;;15.00;;
35847;SDS011;22332;51.954;20.118;2023-11-19T17:37:41;24.00;;;13.80;;
35847;SDS011;22332;51.954;20.118;2023-11-19T17:40:47;20.60;;;13.00;;
35847;SDS011;22332;51.954;20.118;2023-11-19T17:43:52;19.50;;;11.40;;
35847;SDS011;22332;51.954;20.118;2023-11-19T17:46:58;25.60;;;15.30;;
35847;SDS011;22332;51.954;20.118;2023-11-19T17:50:04;22.10;;;13.60;;
35847;SDS011;22332;51.954;20.118;2023-11-19T17:53:12;22.40;;;13.80;;
35847;SDS011;22332;51.954;20.118;2023-11-19T17:56:17;21.40;;;13.50;;